sensor_id;sensor_type;location;lat;lon;timestamp;temperature;humidity
4757;DHT22;2392;52.578;13.426;2023-12-20T00:00:29;7.40;99.90
4757;DHT22;2392;52.578;13.426;2023-12-20T00:02:56;7.40;99.90
4757;DHT22;2392;52.578;13.426;2023-12-20T00:05:23;7.40;99.90
4757;DHT22;2392;52.578;13.426;2023-12-20T00:07:50;7.40;99.90
4757;DHT22;2392;52.578;13.426;2023-12-20T00:10:17;7.40;99.90
4757;DHT22;2392;52.578;13.426;2023-12-20T00:12:44;7.40;99.90
4757;DHT22;2392;52.578;13.426;2023-12-20T00:15:10;7.40;99.90
4757;DHT22;2392;52.578;13.426;2023-12-20T00:17:37;7.40;99.90
4757;DHT22;2392;52.578;13.426;2023-12-20T00:20:04;7.40;99.90
4757;DHT22;2392;52.578;13.426;2023-12-20T00:22:32;7.40;99.90
4757;DHT22;2392;52.578;13.426;2023-12-20T00:24:59;7.40;99.90
4757;DHT22;2392;52.578;13.426;2023-12-20T00:27:25;7.30;99.90
4757;DHT22;2392;52.578;13.426;2023-12-20T00:29:53;7.30;99.90
4757;DHT22;2392;52.578;13.426;2023-12-20T00:32:20;7.30;99.90
4757;DHT22;2392;52.578;13.426;2023-12-20T00:34:46;7.30;99.90
4757;DHT22;2392;52.578;13.426;2023-12-20T00:37:13;7.30;99.90
4757;DHT22;2392;52.578;13.426;2023-12-20T00:39:40;7.30;99.90
4757;DHT22;2392;52.578;13.426;2023-12-20T00:42:06;7.40;99.90
4757;DHT22;2392;52.578;13.426;2023-12-20T00:44:33;7.40;99.90
4757;DHT22;2392;52.578;13.426;2023-12-20T00:47:01;7.40;99.90
4757;DHT22;2392;52.578;13.426;2023-12-20T00:49:27;7.40;99.90
4757;DHT22;2392;52.578;13.426;2023-12-20T00:51:54;7.50;99.90
4757;DHT22;2392;52.578;13.426;2023-12-20T00:54:21;7.50;99.90
4757;DHT22;2392;52.578;13.426;2023-12-20T00:56:47;7.50;99.90
4757;DHT22;2392;52.578;13.426;2023-12-20T00:59:14;7.40;99.90
4757;DHT22;2392;52.578;13.426;2023-12-20T01:01:41;7.50;99.90
4757;DHT22;2392;52.578;13.426;2023-12-20T01:04:09;7.50;99.90
4757;DHT22;2392;52.578;13.426;2023-12-20T01:06:36;7.50;99.90
4757;DHT22;2392;52.578;13.426;2023-12-20T01:09:03;7.50;99.90
4757;DHT22;2392;52.578;13.426;2023-12-20T01:11:29;7.50;99.90
4757;DHT22;2392;52.578;13.426;2023-12-20T01:13:56;7.50;99.90
4757;DHT22;2392;52.578;13.426;2023-12-20T01:16:23;7.50;99.90
4757;DHT22;2392;52.578;13.426;2023-12-20T01:18:49;7.50;99.90
4757;DHT22;2392;52.578;13.426;2023-12-20T01:21:17;7.50;99.90
4757;DHT22;2392;52.578;13.426;2023-12-20T01:23:44;7.50;99.90
4757;DHT22;2392;52.578;13.426;2023-12-20T01:26:10;7.50;99.90
4757;DHT22;2392;52.578;13.426;2023-12-20T01:28:37;7.50;99.90
4757;DHT22;2392;52.578;13.426;2023-12-20T01:31:04;7.40;99.90
4757;DHT22;2392;52.578;13.426;2023-12-20T01:33:31;7.40;99.90
4757;DHT22;2392;52.578;13.426;2023-12-20T01:35:58;7.40;99.90
4757;DHT22;2392;52.578;13.426;2023-12-20T01:38:26;7.40;99.90
4757;DHT22;2392;52.578;13.426;2023-12-20T01:40:52;7.30;99.90
4757;DHT22;2392;52.578;13.426;2023-12-20T01:43:19;7.30;99.90
4757;DHT22;2392;52.578;13.426;2023-12-20T01:45:46;7.30;99.90
4757;DHT22;2392;52.578;13.426;2023-12-20T01:48:15;7.30;99.90
4757;DHT22;2392;52.578;13.426;2023-12-20T01:50:43;7.30;99.90
4757;DHT22;2392;52.578;13.426;2023-12-20T01:53:11;7.20;99.90
4757;DHT22;2392;52.578;13.426;2023-12-20T01:55:40;7.20;99.90
4757;DHT22;2392;52.578;13.426;2023-12-20T01:58:09;7.20;99.90
4757;DHT22;2392;52.578;13.426;2023-12-20T02:00:36;7.20;99.90
4757;DHT22;2392;52.578;13.426;2023-12-20T02:03:03;7.20;99.90
4757;DHT22;2392;52.578;13.426;2023-12-20T02:05:30;7.20;99.90
4757;DHT22;2392;52.578;13.426;2023-12-20T02:07:57;7.20;99.90
4757;DHT22;2392;52.578;13.426;2023-12-20T02:10:24;7.30;99.90
4757;DHT22;2392;52.578;13.426;2023-12-20T02:12:52;7.20;99.90
4757;DHT22;2392;52.578;13.426;2023-12-20T02:15:19;7.20;99.90
4757;DHT22;2392;52.578;13.426;2023-12-20T02:17:47;7.20;99.90
4757;DHT22;2392;52.578;13.426;2023-12-20T02:20:13;7.20;99.90
4757;DHT22;2392;52.578;13.426;2023-12-20T02:22:41;7.20;99.90
4757;DHT22;2392;52.578;13.426;2023-12-20T02:25:08;7.20;99.90
4757;DHT22;2392;52.578;13.426;2023-12-20T02:27:35;7.20;99.90
4757;DHT22;2392;52.578;13.426;2023-12-20T02:30:02;7.20;99.90
4757;DHT22;2392;52.578;13.426;2023-12-20T02:32:29;7.20;99.90
4757;DHT22;2392;52.578;13.426;2023-12-20T02:34:56;7.20;99.90
4757;DHT22;2392;52.578;13.426;2023-12-20T02:37:22;7.30;99.90
4757;DHT22;2392;52.578;13.426;2023-12-20T02:39:50;7.30;99.90
4757;DHT22;2392;52.578;13.426;2023-12-20T02:42:17;7.30;99.90
4757;DHT22;2392;52.578;13.426;2023-12-20T02:44:44;7.30;99.90
4757;DHT22;2392;52.578;13.426;2023-12-20T02:47:10;7.20;99.90
4757;DHT22;2392;52.578;13.426;2023-12-20T02:49:37;7.20;99.90
4757;DHT22;2392;52.578;13.426;2023-12-20T02:52:04;7.20;99.90
4757;DHT22;2392;52.578;13.426;2023-12-20T02:54:31;7.30;99.90
4757;DHT22;2392;52.578;13.426;2023-12-20T02:56:59;7.20;99.90
4757;DHT22;2392;52.578;13.426;2023-12-20T02:59:25;7.20;99.90
4757;DHT22;2392;52.578;13.426;2023-12-20T03:01:52;7.30;99.90
4757;DHT22;2392;52.578;13.426;2023-12-20T03:04:18;7.20;99.90
4757;DHT22;2392;52.578;13.426;2023-12-20T03:06:45;7.30;99.90
4757;DHT22;2392;52.578;13.426;2023-12-20T03:09:12;7.30;99.90
4757;DHT22;2392;52.578;13.426;2023-12-20T03:11:39;7.30;99.90
4757;DHT22;2392;52.578;13.426;2023-12-20T03:14:07;7.30;99.90
4757;DHT22;2392;52.578;13.426;2023-12-20T03:16:33;7.20;99.90
4757;DHT22;2392;52.578;13.426;2023-12-20T03:19:00;7.20;99.90
4757;DHT22;2392;52.578;13.426;2023-12-20T03:21:26;7.20;99.90
4757;DHT22;2392;52.578;13.426;2023-12-20T03:23:53;7.20;99.90
4757;DHT22;2392;52.578;13.426;2023-12-20T03:26:20;7.20;99.90
4757;DHT22;2392;52.578;13.426;2023-12-20T03:28:47;7.10;99.90
4757;DHT22;2392;52.578;13.426;2023-12-20T03:31:16;7.10;99.90
4757;DHT22;2392;52.578;13.426;2023-12-20T03:33:42;7.10;99.90
4757;DHT22;2392;52.578;13.426;2023-12-20T03:36:09;7.10;99.90
4757;DHT22;2392;52.578;13.426;2023-12-20T03:38:36;7.00;99.90
4757;DHT22;2392;52.578;13.426;2023-12-20T03:41:02;7.10;99.90
4757;DHT22;2392;52.578;13.426;2023-12-20T03:43:29;7.00;99.90
4757;DHT22;2392;52.578;13.426;2023-12-20T03:45:56;7.00;99.90
4757;DHT22;2392;52.578;13.426;2023-12-20T03:48:25;6.90;99.90
4757;DHT22;2392;52.578;13.426;2023-12-20T03:50:52;6.90;99.90
4757;DHT22;2392;52.578;13.426;2023-12-20T03:53:18;6.90;99.90
4757;DHT22;2392;52.578;13.426;2023-12-20T03:55:45;6.90;99.90
4757;DHT22;2392;52.578;13.426;2023-12-20T03:58:12;6.90;99.90
4757;DHT22;2392;52.578;13.426;2023-12-20T04:00:39;6.90;99.90
4757;DHT22;2392;52.578;13.426;2023-12-20T04:03:05;6.90;99.90
4757;DHT22;2392;52.578;13.426;2023-12-20T04:05:33;6.90;99.90
4757;DHT22;2392;52.578;13.426;2023-12-20T04:08:01;6.90;99.90
4757;DHT22;2392;52.578;13.426;2023-12-20T04:10:28;6.90;99.90
4757;DHT22;2392;52.578;13.426;2023-12-20T04:12:55;6.90;99.90
4757;DHT22;2392;52.578;13.426;2023-12-20T04:15:21;6.90;99.90
4757;DHT22;2392;52.578;13.426;2023-12-20T04:17:48;6.90;99.90
4757;DHT22;2392;52.578;13.426;2023-12-20T04:20:15;6.90;99.90
4757;DHT22;2392;52.578;13.426;2023-12-20T04:22:43;6.90;99.90
4757;DHT22;2392;52.578;13.426;2023-12-20T04:25:09;6.90;99.90
4757;DHT22;2392;52.578;13.426;2023-12-20T04:27:36;7.00;99.90
4757;DHT22;2392;52.578;13.426;2023-12-20T04:30:03;6.90;99.90
4757;DHT22;2392;52.578;13.426;2023-12-20T04:32:30;6.90;99.90
4757;DHT22;2392;52.578;13.426;2023-12-20T04:34:57;6.80;99.90
4757;DHT22;2392;52.578;13.426;2023-12-20T04:37:24;6.80;99.90
4757;DHT22;2392;52.578;13.426;2023-12-20T04:39:51;6.70;99.90
4757;DHT22;2392;52.578;13.426;2023-12-20T04:42:18;6.60;99.90
4757;DHT22;2392;52.578;13.426;2023-12-20T04:44:45;6.70;99.90
4757;DHT22;2392;52.578;13.426;2023-12-20T04:47:11;6.60;99.90
4757;DHT22;2392;52.578;13.426;2023-12-20T04:49:38;6.60;99.90
4757;DHT22;2392;52.578;13.426;2023-12-20T04:52:05;6.50;99.90
4757;DHT22;2392;52.578;13.426;2023-12-20T04:54:32;6.50;99.90
4757;DHT22;2392;52.578;13.426;2023-12-20T04:57:00;6.40;99.90
4757;DHT22;2392;52.578;13.426;2023-12-20T04:59:26;6.40;99.90
4757;DHT22;2392;52.578;13.426;2023-12-20T05:01:53;6.40;99.90
4757;DHT22;2392;52.578;13.426;2023-12-20T05:04:20;6.30;99.90
4757;DHT22;2392;52.578;13.426;2023-12-20T05:06:46;6.30;99.90
4757;DHT22;2392;52.578;13.426;2023-12-20T05:09:15;6.30;99.90
4757;DHT22;2392;52.578;13.426;2023-12-20T05:11:42;6.30;99.90
4757;DHT22;2392;52.578;13.426;2023-12-20T05:14:09;6.40;99.90
4757;DHT22;2392;52.578;13.426;2023-12-20T05:16:36;6.40;99.90
4757;DHT22;2392;52.578;13.426;2023-12-20T05:19:03;6.40;99.90
4757;DHT22;2392;52.578;13.426;2023-12-20T05:21:32;6.30;99.90
4757;DHT22;2392;52.578;13.426;2023-12-20T05:23:59;6.40;99.90
4757;DHT22;2392;52.578;13.426;2023-12-20T05:26:26;6.40;99.90
4757;DHT22;2392;52.578;13.426;2023-12-20T05:28:52;6.40;99.90
4757;DHT22;2392;52.578;13.426;2023-12-20T05:31:20;6.30;99.90
4757;DHT22;2392;52.578;13.426;2023-12-20T05:33:47;6.20;99.90
4757;DHT22;2392;52.578;13.426;2023-12-20T05:36:13;6.20;99.90
4757;DHT22;2392;52.578;13.426;2023-12-20T05:38:40;6.10;99.90
4757;DHT22;2392;52.578;13.426;2023-12-20T05:41:08;6.00;99.90
4757;DHT22;2392;52.578;13.426;2023-12-20T05:43:35;6.00;99.90
4757;DHT22;2392;52.578;13.426;2023-12-20T05:46:01;6.00;99.90
4757;DHT22;2392;52.578;13.426;2023-12-20T05:48:29;6.00;99.90
4757;DHT22;2392;52.578;13.426;2023-12-20T05:50:56;6.00;99.90
4757;DHT22;2392;52.578;13.426;2023-12-20T05:53:23;5.90;99.90
4757;DHT22;2392;52.578;13.426;2023-12-20T05:55:50;5.80;99.90
4757;DHT22;2392;52.578;13.426;2023-12-20T05:58:17;5.80;99.90
4757;DHT22;2392;52.578;13.426;2023-12-20T06:00:43;5.80;99.90
4757;DHT22;2392;52.578;13.426;2023-12-20T06:03:10;5.70;99.90
4757;DHT22;2392;52.578;13.426;2023-12-20T06:05:38;5.70;99.90
4757;DHT22;2392;52.578;13.426;2023-12-20T06:08:05;5.70;99.90
4757;DHT22;2392;52.578;13.426;2023-12-20T06:10:32;5.70;99.90
4757;DHT22;2392;52.578;13.426;2023-12-20T06:12:58;5.70;99.90
4757;DHT22;2392;52.578;13.426;2023-12-20T06:15:26;5.70;99.90
4757;DHT22;2392;52.578;13.426;2023-12-20T06:17:53;5.70;99.90
4757;DHT22;2392;52.578;13.426;2023-12-20T06:20:19;5.70;99.90
4757;DHT22;2392;52.578;13.426;2023-12-20T06:22:47;5.70;99.90
4757;DHT22;2392;52.578;13.426;2023-12-20T06:25:14;5.70;99.90
4757;DHT22;2392;52.578;13.426;2023-12-20T06:27:41;5.70;99.90
4757;DHT22;2392;52.578;13.426;2023-12-20T06:30:08;5.70;99.90
4757;DHT22;2392;52.578;13.426;2023-12-20T06:32:35;5.70;99.90
4757;DHT22;2392;52.578;13.426;2023-12-20T06:35:04;5.70;99.90
4757;DHT22;2392;52.578;13.426;2023-12-20T06:37:31;5.70;99.90
4757;DHT22;2392;52.578;13.426;2023-12-20T06:39:59;5.70;99.90
4757;DHT22;2392;52.578;13.426;2023-12-20T06:42:26;5.70;99.90
4757;DHT22;2392;52.578;13.426;2023-12-20T06:44:52;5.70;99.90
4757;DHT22;2392;52.578;13.426;2023-12-20T06:47:19;5.70;99.90
4757;DHT22;2392;52.578;13.426;2023-12-20T06:49:45;5.70;99.90
4757;DHT22;2392;52.578;13.426;2023-12-20T06:52:12;5.60;99.90
4757;DHT22;2392;52.578;13.426;2023-12-20T06:54:39;5.60;99.90
4757;DHT22;2392;52.578;13.426;2023-12-20T06:57:07;5.60;99.90
4757;DHT22;2392;52.578;13.426;2023-12-20T06:59:38;5.60;99.90
4757;DHT22;2392;52.578;13.426;2023-12-20T07:02:05;5.60;99.90
4757;DHT22;2392;52.578;13.426;2023-12-20T07:04:32;5.60;99.90
4757;DHT22;2392;52.578;13.426;2023-12-20T07:06:58;5.60;99.90
4757;DHT22;2392;52.578;13.426;2023-12-20T07:09:25;5.50;99.90
4757;DHT22;2392;52.578;13.426;2023-12-20T07:11:52;5.60;99.90
4757;DHT22;2392;52.578;13.426;2023-12-20T07:14:20;5.60;99.90
4757;DHT22;2392;52.578;13.426;2023-12-20T07:16:47;5.60;99.90
4757;DHT22;2392;52.578;13.426;2023-12-20T07:19:14;5.60;99.90
4757;DHT22;2392;52.578;13.426;2023-12-20T07:21:41;5.70;99.90
4757;DHT22;2392;52.578;13.426;2023-12-20T07:24:08;5.70;99.90
4757;DHT22;2392;52.578;13.426;2023-12-20T07:26:35;5.70;99.90
4757;DHT22;2392;52.578;13.426;2023-12-20T07:29:03;5.70;99.90
4757;DHT22;2392;52.578;13.426;2023-12-20T07:31:31;5.80;99.90
4757;DHT22;2392;52.578;13.426;2023-12-20T07:33:57;5.80;99.90
4757;DHT22;2392;52.578;13.426;2023-12-20T07:36:24;5.80;99.90
4757;DHT22;2392;52.578;13.426;2023-12-20T07:38:51;5.80;99.90
4757;DHT22;2392;52.578;13.426;2023-12-20T07:41:17;5.80;99.90
4757;DHT22;2392;52.578;13.426;2023-12-20T07:43:46;5.80;99.90
4757;DHT22;2392;52.578;13.426;2023-12-20T07:46:13;5.80;99.90
4757;DHT22;2392;52.578;13.426;2023-12-20T07:48:41;5.80;99.90
4757;DHT22;2392;52.578;13.426;2023-12-20T07:51:08;5.80;99.90
4757;DHT22;2392;52.578;13.426;2023-12-20T07:53:35;5.80;99.90
4757;DHT22;2392;52.578;13.426;2023-12-20T07:56:13;5.90;99.90
4757;DHT22;2392;52.578;13.426;2023-12-20T07:58:40;5.90;99.90
4757;DHT22;2392;52.578;13.426;2023-12-20T08:01:07;5.90;99.90
4757;DHT22;2392;52.578;13.426;2023-12-20T08:03:34;5.90;99.90
4757;DHT22;2392;52.578;13.426;2023-12-20T08:06:02;5.90;99.90
4757;DHT22;2392;52.578;13.426;2023-12-20T08:08:29;5.90;99.90
4757;DHT22;2392;52.578;13.426;2023-12-20T08:10:56;5.90;99.90
4757;DHT22;2392;52.578;13.426;2023-12-20T08:13:24;5.90;99.90
4757;DHT22;2392;52.578;13.426;2023-12-20T08:15:51;5.90;99.90
4757;DHT22;2392;52.578;13.426;2023-12-20T08:18:18;5.90;99.90
4757;DHT22;2392;52.578;13.426;2023-12-20T08:20:45;5.90;99.90
4757;DHT22;2392;52.578;13.426;2023-12-20T08:23:14;6.00;99.90
4757;DHT22;2392;52.578;13.426;2023-12-20T08:25:41;6.00;99.90
4757;DHT22;2392;52.578;13.426;2023-12-20T08:28:08;5.90;99.90
4757;DHT22;2392;52.578;13.426;2023-12-20T08:30:34;6.00;99.90
4757;DHT22;2392;52.578;13.426;2023-12-20T08:33:01;6.00;99.90
4757;DHT22;2392;52.578;13.426;2023-12-20T08:35:28;6.00;99.90
4757;DHT22;2392;52.578;13.426;2023-12-20T08:37:54;6.00;99.90
4757;DHT22;2392;52.578;13.426;2023-12-20T08:40:23;6.00;99.90
4757;DHT22;2392;52.578;13.426;2023-12-20T08:42:50;6.00;99.90
4757;DHT22;2392;52.578;13.426;2023-12-20T08:45:16;6.00;99.90
4757;DHT22;2392;52.578;13.426;2023-12-20T08:47:43;6.00;99.90
4757;DHT22;2392;52.578;13.426;2023-12-20T08:50:11;6.00;99.90
4757;DHT22;2392;52.578;13.426;2023-12-20T08:52:37;6.10;99.90
4757;DHT22;2392;52.578;13.426;2023-12-20T08:55:05;6.20;99.90
4757;DHT22;2392;52.578;13.426;2023-12-20T08:57:33;6.20;99.90
4757;DHT22;2392;52.578;13.426;2023-12-20T09:00:00;6.20;99.90
4757;DHT22;2392;52.578;13.426;2023-12-20T09:02:27;6.20;99.90
4757;DHT22;2392;52.578;13.426;2023-12-20T09:04:54;6.10;99.90
4757;DHT22;2392;52.578;13.426;2023-12-20T09:07:25;6.20;99.90
4757;DHT22;2392;52.578;13.426;2023-12-20T09:09:55;6.20;99.90
4757;DHT22;2392;52.578;13.426;2023-12-20T09:12:25;6.30;99.90
4757;DHT22;2392;52.578;13.426;2023-12-20T09:14:54;6.40;99.90
4757;DHT22;2392;52.578;13.426;2023-12-20T09:17:21;6.40;99.90
4757;DHT22;2392;52.578;13.426;2023-12-20T09:19:48;6.50;99.90
4757;DHT22;2392;52.578;13.426;2023-12-20T09:22:15;6.50;99.90
4757;DHT22;2392;52.578;13.426;2023-12-20T09:24:43;6.60;99.90
4757;DHT22;2392;52.578;13.426;2023-12-20T09:27:10;6.60;99.90
4757;DHT22;2392;52.578;13.426;2023-12-20T09:29:37;6.60;99.90
4757;DHT22;2392;52.578;13.426;2023-12-20T09:32:06;6.70;99.90
4757;DHT22;2392;52.578;13.426;2023-12-20T09:34:33;6.70;99.90
4757;DHT22;2392;52.578;13.426;2023-12-20T09:37:00;6.70;99.90
4757;DHT22;2392;52.578;13.426;2023-12-20T09:39:28;6.70;99.90
4757;DHT22;2392;52.578;13.426;2023-12-20T09:42:01;6.60;99.90
4757;DHT22;2392;52.578;13.426;2023-12-20T09:44:28;6.70;99.90
4757;DHT22;2392;52.578;13.426;2023-12-20T09:46:58;6.70;99.90
4757;DHT22;2392;52.578;13.426;2023-12-20T09:49:32;6.70;99.90
4757;DHT22;2392;52.578;13.426;2023-12-20T09:52:00;6.80;99.90
4757;DHT22;2392;52.578;13.426;2023-12-20T09:54:29;6.80;99.90
4757;DHT22;2392;52.578;13.426;2023-12-20T09:56:59;6.70;99.90
4757;DHT22;2392;52.578;13.426;2023-12-20T09:59:26;6.60;99.90
4757;DHT22;2392;52.578;13.426;2023-12-20T10:01:55;6.60;99.90
4757;DHT22;2392;52.578;13.426;2023-12-20T10:04:23;6.60;99.90
4757;DHT22;2392;52.578;13.426;2023-12-20T10:06:52;6.60;99.90
4757;DHT22;2392;52.578;13.426;2023-12-20T10:09:19;6.60;99.90
4757;DHT22;2392;52.578;13.426;2023-12-20T10:11:45;6.60;99.90
4757;DHT22;2392;52.578;13.426;2023-12-20T10:14:15;6.60;99.90
4757;DHT22;2392;52.578;13.426;2023-12-20T10:16:44;6.60;99.90
4757;DHT22;2392;52.578;13.426;2023-12-20T10:19:11;6.70;99.90
4757;DHT22;2392;52.578;13.426;2023-12-20T10:21:38;6.70;99.90
4757;DHT22;2392;52.578;13.426;2023-12-20T10:24:06;6.60;99.90
4757;DHT22;2392;52.578;13.426;2023-12-20T10:26:33;6.70;99.90
4757;DHT22;2392;52.578;13.426;2023-12-20T10:29:00;6.70;99.90
4757;DHT22;2392;52.578;13.426;2023-12-20T10:31:29;6.80;99.90
4757;DHT22;2392;52.578;13.426;2023-12-20T10:33:57;6.70;99.90
4757;DHT22;2392;52.578;13.426;2023-12-20T10:36:25;6.70;99.90
4757;DHT22;2392;52.578;13.426;2023-12-20T10:38:54;6.70;99.90
4757;DHT22;2392;52.578;13.426;2023-12-20T10:41:25;6.60;99.90
4757;DHT22;2392;52.578;13.426;2023-12-20T10:43:55;6.70;99.90
4757;DHT22;2392;52.578;13.426;2023-12-20T10:46:22;6.70;99.90
4757;DHT22;2392;52.578;13.426;2023-12-20T10:48:53;6.80;99.90
4757;DHT22;2392;52.578;13.426;2023-12-20T10:51:20;6.90;99.90
4757;DHT22;2392;52.578;13.426;2023-12-20T10:53:48;7.00;99.90
4757;DHT22;2392;52.578;13.426;2023-12-20T10:56:16;7.00;99.90
4757;DHT22;2392;52.578;13.426;2023-12-20T10:58:45;7.00;99.90
4757;DHT22;2392;52.578;13.426;2023-12-20T11:01:13;7.00;99.90
4757;DHT22;2392;52.578;13.426;2023-12-20T11:03:43;6.90;99.90
4757;DHT22;2392;52.578;13.426;2023-12-20T11:06:27;6.80;99.90
4757;DHT22;2392;52.578;13.426;2023-12-20T11:09:01;6.80;99.90
4757;DHT22;2392;52.578;13.426;2023-12-20T11:11:40;6.90;99.90
4757;DHT22;2392;52.578;13.426;2023-12-20T11:14:16;6.90;99.90
4757;DHT22;2392;52.578;13.426;2023-12-20T11:16:44;6.90;99.90
4757;DHT22;2392;52.578;13.426;2023-12-20T11:19:11;6.90;99.90
4757;DHT22;2392;52.578;13.426;2023-12-20T11:21:40;6.90;99.90
4757;DHT22;2392;52.578;13.426;2023-12-20T11:24:06;6.90;99.90
4757;DHT22;2392;52.578;13.426;2023-12-20T11:26:33;6.90;99.90
4757;DHT22;2392;52.578;13.426;2023-12-20T11:31:59;6.80;99.90
4757;DHT22;2392;52.578;13.426;2023-12-20T11:34:27;6.80;99.90
4757;DHT22;2392;52.578;13.426;2023-12-20T11:36:58;6.80;99.90
4757;DHT22;2392;52.578;13.426;2023-12-20T11:39:26;6.80;99.90
4757;DHT22;2392;52.578;13.426;2023-12-20T11:41:54;6.80;99.90
4757;DHT22;2392;52.578;13.426;2023-12-20T11:44:23;6.70;99.90
4757;DHT22;2392;52.578;13.426;2023-12-20T11:46:51;6.80;99.90
4757;DHT22;2392;52.578;13.426;2023-12-20T11:49:24;6.70;99.90
4757;DHT22;2392;52.578;13.426;2023-12-20T11:51:51;6.80;99.90
4757;DHT22;2392;52.578;13.426;2023-12-20T11:54:18;6.80;99.90
4757;DHT22;2392;52.578;13.426;2023-12-20T11:56:45;6.80;99.90
4757;DHT22;2392;52.578;13.426;2023-12-20T11:59:12;6.90;99.90
4757;DHT22;2392;52.578;13.426;2023-12-20T12:01:38;6.90;99.90
4757;DHT22;2392;52.578;13.426;2023-12-20T12:04:05;6.90;99.90
4757;DHT22;2392;52.578;13.426;2023-12-20T12:06:33;6.90;99.90
4757;DHT22;2392;52.578;13.426;2023-12-20T12:09:01;7.00;99.90
4757;DHT22;2392;52.578;13.426;2023-12-20T12:11:29;7.10;99.90
4757;DHT22;2392;52.578;13.426;2023-12-20T12:13:59;7.10;99.90
4757;DHT22;2392;52.578;13.426;2023-12-20T12:16:26;7.00;99.90
4757;DHT22;2392;52.578;13.426;2023-12-20T12:18:56;7.00;99.90
4757;DHT22;2392;52.578;13.426;2023-12-20T12:21:23;7.00;99.90
4757;DHT22;2392;52.578;13.426;2023-12-20T12:23:54;7.00;99.90
4757;DHT22;2392;52.578;13.426;2023-12-20T12:26:20;7.00;99.90
4757;DHT22;2392;52.578;13.426;2023-12-20T12:28:47;7.00;99.90
4757;DHT22;2392;52.578;13.426;2023-12-20T12:31:14;6.90;99.90
4757;DHT22;2392;52.578;13.426;2023-12-20T12:33:42;6.80;99.90
4757;DHT22;2392;52.578;13.426;2023-12-20T12:36:09;6.70;99.90
4757;DHT22;2392;52.578;13.426;2023-12-20T12:38:36;6.60;99.90
4757;DHT22;2392;52.578;13.426;2023-12-20T12:41:04;6.60;99.90
4757;DHT22;2392;52.578;13.426;2023-12-20T12:43:32;6.50;99.90
4757;DHT22;2392;52.578;13.426;2023-12-20T12:46:01;6.40;99.90
4757;DHT22;2392;52.578;13.426;2023-12-20T12:48:28;6.40;99.90
4757;DHT22;2392;52.578;13.426;2023-12-20T12:50:55;6.30;99.90
4757;DHT22;2392;52.578;13.426;2023-12-20T12:53:25;6.20;99.90
4757;DHT22;2392;52.578;13.426;2023-12-20T12:55:52;6.10;99.90
4757;DHT22;2392;52.578;13.426;2023-12-20T12:58:20;6.10;99.90
4757;DHT22;2392;52.578;13.426;2023-12-20T13:00:47;6.10;99.90
4757;DHT22;2392;52.578;13.426;2023-12-20T13:03:14;6.10;99.90
4757;DHT22;2392;52.578;13.426;2023-12-20T13:05:42;6.10;99.90
4757;DHT22;2392;52.578;13.426;2023-12-20T13:08:08;6.10;99.90
4757;DHT22;2392;52.578;13.426;2023-12-20T13:10:40;6.10;99.90
4757;DHT22;2392;52.578;13.426;2023-12-20T13:13:07;6.10;99.90
4757;DHT22;2392;52.578;13.426;2023-12-20T13:15:35;6.10;99.90
4757;DHT22;2392;52.578;13.426;2023-12-20T13:18:02;6.10;99.90
4757;DHT22;2392;52.578;13.426;2023-12-20T13:20:30;6.20;99.90
4757;DHT22;2392;52.578;13.426;2023-12-20T13:22:59;6.20;99.90
4757;DHT22;2392;52.578;13.426;2023-12-20T13:25:26;6.20;99.90
4757;DHT22;2392;52.578;13.426;2023-12-20T13:27:53;6.20;99.90
4757;DHT22;2392;52.578;13.426;2023-12-20T13:30:20;6.10;99.90
4757;DHT22;2392;52.578;13.426;2023-12-20T13:32:48;6.10;99.90
4757;DHT22;2392;52.578;13.426;2023-12-20T13:35:15;6.10;99.90
4757;DHT22;2392;52.578;13.426;2023-12-20T13:37:42;6.00;99.90
4757;DHT22;2392;52.578;13.426;2023-12-20T13:40:10;6.00;99.90
4757;DHT22;2392;52.578;13.426;2023-12-20T13:42:41;6.00;99.90
4757;DHT22;2392;52.578;13.426;2023-12-20T13:45:08;6.00;99.90
4757;DHT22;2392;52.578;13.426;2023-12-20T13:47:35;6.00;99.90
4757;DHT22;2392;52.578;13.426;2023-12-20T13:50:04;6.00;99.90
4757;DHT22;2392;52.578;13.426;2023-12-20T13:52:31;6.00;99.90
4757;DHT22;2392;52.578;13.426;2023-12-20T13:54:57;5.90;99.90
4757;DHT22;2392;52.578;13.426;2023-12-20T13:57:24;5.90;99.90
4757;DHT22;2392;52.578;13.426;2023-12-20T13:59:51;5.80;99.90
4757;DHT22;2392;52.578;13.426;2023-12-20T14:02:18;5.70;99.90
4757;DHT22;2392;52.578;13.426;2023-12-20T14:04:44;5.70;99.90
4757;DHT22;2392;52.578;13.426;2023-12-20T14:07:15;5.80;99.90
4757;DHT22;2392;52.578;13.426;2023-12-20T14:09:42;5.80;99.90
4757;DHT22;2392;52.578;13.426;2023-12-20T14:12:10;5.90;99.90
4757;DHT22;2392;52.578;13.426;2023-12-20T14:14:37;5.90;99.90
4757;DHT22;2392;52.578;13.426;2023-12-20T14:17:04;5.80;99.90
4757;DHT22;2392;52.578;13.426;2023-12-20T14:19:32;5.80;99.90
4757;DHT22;2392;52.578;13.426;2023-12-20T14:21:58;5.80;99.90
4757;DHT22;2392;52.578;13.426;2023-12-20T14:24:28;5.80;99.90
4757;DHT22;2392;52.578;13.426;2023-12-20T14:26:55;5.80;99.90
4757;DHT22;2392;52.578;13.426;2023-12-20T14:29:21;5.80;99.90
4757;DHT22;2392;52.578;13.426;2023-12-20T14:31:48;5.90;99.90
4757;DHT22;2392;52.578;13.426;2023-12-20T14:34:16;5.80;99.90
4757;DHT22;2392;52.578;13.426;2023-12-20T14:36:42;5.80;99.90
4757;DHT22;2392;52.578;13.426;2023-12-20T14:39:09;5.80;99.90
4757;DHT22;2392;52.578;13.426;2023-12-20T14:41:39;5.80;99.90
4757;DHT22;2392;52.578;13.426;2023-12-20T14:44:06;5.80;99.90
4757;DHT22;2392;52.578;13.426;2023-12-20T14:46:33;5.80;99.90
4757;DHT22;2392;52.578;13.426;2023-12-20T14:48:59;5.80;99.90
4757;DHT22;2392;52.578;13.426;2023-12-20T14:51:28;5.80;99.90
4757;DHT22;2392;52.578;13.426;2023-12-20T14:53:55;5.80;99.90
4757;DHT22;2392;52.578;13.426;2023-12-20T14:56:23;5.80;99.90
4757;DHT22;2392;52.578;13.426;2023-12-20T14:58:52;5.80;99.90
4757;DHT22;2392;52.578;13.426;2023-12-20T15:01:19;5.80;99.90
4757;DHT22;2392;52.578;13.426;2023-12-20T15:03:47;5.80;99.90
4757;DHT22;2392;52.578;13.426;2023-12-20T15:06:13;5.90;99.90
4757;DHT22;2392;52.578;13.426;2023-12-20T15:08:40;5.90;99.90
4757;DHT22;2392;52.578;13.426;2023-12-20T15:11:07;5.90;99.90
4757;DHT22;2392;52.578;13.426;2023-12-20T15:13:33;5.90;99.90
4757;DHT22;2392;52.578;13.426;2023-12-20T15:16:02;5.90;99.90
4757;DHT22;2392;52.578;13.426;2023-12-20T15:18:30;5.90;99.90
4757;DHT22;2392;52.578;13.426;2023-12-20T15:20:57;5.90;99.90
4757;DHT22;2392;52.578;13.426;2023-12-20T15:23:25;5.90;99.90
4757;DHT22;2392;52.578;13.426;2023-12-20T15:25:54;5.80;99.90
4757;DHT22;2392;52.578;13.426;2023-12-20T15:28:21;5.90;99.90
4757;DHT22;2392;52.578;13.426;2023-12-20T15:30:47;5.80;99.90
4757;DHT22;2392;52.578;13.426;2023-12-20T15:33:15;5.80;99.90
4757;DHT22;2392;52.578;13.426;2023-12-20T15:35:42;5.80;99.90
4757;DHT22;2392;52.578;13.426;2023-12-20T15:38:08;5.80;99.90
4757;DHT22;2392;52.578;13.426;2023-12-20T15:40:35;5.80;99.90
4757;DHT22;2392;52.578;13.426;2023-12-20T15:43:02;5.70;99.90
4757;DHT22;2392;52.578;13.426;2023-12-20T15:45:28;5.60;99.90
4757;DHT22;2392;52.578;13.426;2023-12-20T15:47:55;5.60;99.90
4757;DHT22;2392;52.578;13.426;2023-12-20T15:50:23;5.50;99.90
4757;DHT22;2392;52.578;13.426;2023-12-20T15:52:50;5.50;99.90
4757;DHT22;2392;52.578;13.426;2023-12-20T15:55:16;5.50;99.90
4757;DHT22;2392;52.578;13.426;2023-12-20T15:57:43;5.40;99.90
4757;DHT22;2392;52.578;13.426;2023-12-20T16:00:10;5.40;99.90
4757;DHT22;2392;52.578;13.426;2023-12-20T16:02:37;5.30;99.90
4757;DHT22;2392;52.578;13.426;2023-12-20T16:05:04;5.30;99.90